createdAt,value
2018-05-15T00:00:23.831Z,65.26
2018-05-15T00:01:23.834Z,64.50
2018-05-15T00:02:23.850Z,65.17
2018-05-15T00:03:23.988Z,65.45
2018-05-15T00:04:24.011Z,65.74
2018-05-15T00:05:23.913Z,66.61
2018-05-15T00:06:23.943Z,66.41
2018-05-15T00:07:23.959Z,66.22
2018-05-15T00:08:24.090Z,66.89
2018-05-15T00:09:24.005Z,65.84
2018-05-15T00:10:24.012Z,65.84
2018-05-15T00:11:24.039Z,66.61
2018-05-15T00:12:24.055Z,67.18
2018-05-15T00:13:24.075Z,67.27
2018-05-15T00:14:24.106Z,67.94
2018-05-15T00:15:24.118Z,67.66
2018-05-15T00:16:24.256Z,68.01
2018-05-15T00:17:24.157Z,68.77
2018-05-15T00:18:24.222Z,69.25
2018-05-15T00:19:24.267Z,68.96
2018-05-15T00:20:24.208Z,68.87
2018-05-15T00:21:24.226Z,68.10
2018-05-15T00:22:24.302Z,69.06
2018-05-15T00:23:24.281Z,68.77
2018-05-15T00:24:24.291Z,68.77
2018-05-15T00:25:24.314Z,68.10
2018-05-15T00:26:24.333Z,68.29
2018-05-15T00:27:24.395Z,68.20
2018-05-15T00:28:24.386Z,68.58
2018-05-15T00:29:24.449Z,69.25
2018-05-15T00:30:24.409Z,68.87
2018-05-15T00:31:24.435Z,69.25
2018-05-15T00:32:24.453Z,68.87
2018-05-15T00:33:24.461Z,68.77
2018-05-15T00:34:24.489Z,69.54
2018-05-15T00:35:24.615Z,68.58
2018-05-15T00:36:24.530Z,68.58
2018-05-15T00:37:24.541Z,68.20
2018-05-15T00:38:24.612Z,68.49
2018-05-15T00:39:24.579Z,68.10
2018-05-15T00:40:24.600Z,68.39
2018-05-15T00:41:24.619Z,68.29
2018-05-15T00:42:24.638Z,68.77
2018-05-15T00:43:24.656Z,69.31
2018-05-15T00:44:24.740Z,69.60
2018-05-15T00:45:24.704Z,69.31
2018-05-15T00:46:24.715Z,69.50
2018-05-15T00:47:24.836Z,69.50
2018-05-15T00:48:24.856Z,69.50
2018-05-15T00:49:24.795Z,70.17
2018-05-15T00:50:24.791Z,69.70
2018-05-15T00:51:24.820Z,69.12
2018-05-15T00:52:24.832Z,68.93
2018-05-15T00:53:24.960Z,68.74
2018-05-15T00:54:24.892Z,69.21
2018-05-15T00:55:24.916Z,69.70
2018-05-15T00:56:24.910Z,69.79
2018-05-15T00:57:24.927Z,69.41
2018-05-15T00:58:24.946Z,68.93
2018-05-15T00:59:24.969Z,69.50
2018-05-15T01:00:24.984Z,69.79
2018-05-15T02:40:40.780Z,75.79
2018-05-15T02:41:40.793Z,75.03
2018-05-15T02:42:40.782Z,75.79
2018-05-15T02:43:40.798Z,76.08
2018-05-15T02:44:40.842Z,75.79
2018-05-15T02:45:40.851Z,75.79
2018-05-15T02:46:40.993Z,75.79
2018-05-15T02:47:40.874Z,75.70
2018-05-15T02:48:40.891Z,75.22
2018-05-15T02:49:40.922Z,75.89
2018-05-15T02:50:40.936Z,75.70
2018-05-15T02:51:40.950Z,76.18
2018-05-15T02:52:40.977Z,75.32
2018-05-15T02:53:40.997Z,75.03
2018-05-15T02:54:41.009Z,75.13
2018-05-15T02:55:41.036Z,75.13
2018-05-15T02:56:41.060Z,75.51
2018-05-15T02:57:41.084Z,74.93
2018-05-15T02:58:41.092Z,74.93
2018-05-15T02:59:41.106Z,75.13
2018-05-15T03:00:41.123Z,75.22
2018-05-15T03:01:41.167Z,75.03
2018-05-15T03:02:41.171Z,74.55
2018-05-15T03:03:41.187Z,75.42
2018-05-15T03:04:41.202Z,76.75
2018-05-15T03:05:41.214Z,76.18
2018-05-15T03:06:41.232Z,76.75
2018-05-15T03:07:41.270Z,76.56
2018-05-15T03:08:41.268Z,77.28
2018-05-15T03:09:41.299Z,77.38
2018-05-15T03:10:41.343Z,77.57
2018-05-15T03:11:41.350Z,77.47
2018-05-15T03:12:41.375Z,77.47
2018-05-15T03:13:41.375Z,77.28
2018-05-15T03:14:41.405Z,76.81
2018-05-15T03:15:41.406Z,77.19
2018-05-15T03:16:41.421Z,77.57
2018-05-15T03:17:41.449Z,76.81
2018-05-15T03:18:41.479Z,77.57
2018-05-15T03:19:41.476Z,78.14
2018-05-15T03:20:41.495Z,78.14
2018-05-15T03:21:41.525Z,77.38
2018-05-15T03:22:41.548Z,76.81
2018-05-15T03:23:41.556Z,77.47
2018-05-15T03:24:41.593Z,77.38
2018-05-15T03:25:41.591Z,77.19
2018-05-15T03:26:41.608Z,77.47
2018-05-15T03:27:41.645Z,78.05
2018-05-15T03:28:41.652Z,78.23
2018-05-15T03:29:41.667Z,77.28
2018-05-15T03:30:41.700Z,77.38
2018-05-15T03:31:41.720Z,78.05
2018-05-15T03:32:41.722Z,78.05
2018-05-15T03:33:41.762Z,77.86
2018-05-15T03:34:41.759Z,76.90
2018-05-15T03:35:41.777Z,76.81
2018-05-15T03:36:41.803Z,76.90
2018-05-15T03:37:41.811Z,77.38
2018-05-15T03:38:41.826Z,77.28
2018-05-15T03:39:41.868Z,77.28
2018-05-15T03:40:41.870Z,76.81
2018-05-15T03:41:41.890Z,77.09
2018-05-15T03:42:41.905Z,76.75
2018-05-15T03:43:41.931Z,76.46
2018-05-15T03:44:41.944Z,75.98
2018-05-15T03:45:41.959Z,76.08
2018-05-15T03:46:42.008Z,75.03
2018-05-15T03:47:42.008Z,75.42
2018-05-15T03:48:42.027Z,75.60
2018-05-15T03:49:42.053Z,75.60
2018-05-15T03:50:42.084Z,75.70
2018-05-15T03:51:42.080Z,75.70
2018-05-15T03:52:42.094Z,76.52
2018-05-15T03:53:42.111Z,76.84
2018-05-15T03:54:42.135Z,76.08
2018-05-15T03:55:42.165Z,77.38
2018-05-15T03:56:42.170Z,77.03
2018-05-15T03:57:42.191Z,76.65
2018-05-15T03:58:42.299Z,76.27
2018-05-15T03:59:42.223Z,76.46
2018-05-15T04:00:42.312Z,76.84
2018-05-15T04:01:42.262Z,76.56
2018-05-15T04:02:42.313Z,76.42
2018-05-15T04:03:42.309Z,76.75
2018-05-15T04:04:42.317Z,76.23
2018-05-15T04:05:42.335Z,77.09
2018-05-15T04:06:42.352Z,76.65
2018-05-15T04:07:42.374Z,76.52
2018-05-15T04:08:42.457Z,76.56
2018-05-15T04:09:42.408Z,76.46
2018-05-15T04:10:42.484Z,76.56
2018-05-15T04:11:42.450Z,77.00
2018-05-15T04:12:42.463Z,77.19
2018-05-15T04:13:42.491Z,77.47
2018-05-15T04:14:42.517Z,77.38
2018-05-15T04:15:42.525Z,77.57
2018-05-15T04:16:42.557Z,76.84
2018-05-15T04:17:42.572Z,76.84
2018-05-15T04:18:42.592Z,76.56
2018-05-15T04:19:42.596Z,76.75
2018-05-15T04:20:42.614Z,76.37
2018-05-15T04:21:42.637Z,75.89
2018-05-15T04:22:42.648Z,76.08
2018-05-15T04:23:42.679Z,75.13
2018-05-15T04:24:42.696Z,75.03
2018-05-15T04:25:42.710Z,74.59
2018-05-15T04:26:42.750Z,74.49
2018-05-15T04:27:42.748Z,74.21
2018-05-15T04:28:42.775Z,74.11
2018-05-15T04:29:42.790Z,74.30
2018-05-15T04:30:42.830Z,73.83
2018-05-15T04:31:42.837Z,73.63
2018-05-15T04:32:42.877Z,73.54
2018-05-15T04:33:42.861Z,73.54
2018-05-15T04:34:42.884Z,74.30
2018-05-15T04:35:42.905Z,74.05
2018-05-15T04:36:42.919Z,73.19
2018-05-15T04:37:42.957Z,72.91
2018-05-15T04:38:42.957Z,73.39
2018-05-15T04:39:43.006Z,72.37
2018-05-15T04:40:42.995Z,71.80
2018-05-15T04:41:43.014Z,71.38
2018-05-15T04:42:43.033Z,71.99
2018-05-15T04:43:43.146Z,71.61
2018-05-15T04:44:43.074Z,71.70
2018-05-15T04:45:43.088Z,70.84
2018-05-15T04:46:43.134Z,71.22
2018-05-15T04:47:43.145Z,70.56
2018-05-15T04:48:43.150Z,70.59
2018-05-15T04:49:43.172Z,70.40
2018-05-15T04:50:43.188Z,70.68
2018-05-15T04:51:43.215Z,69.57
2018-05-15T04:52:43.222Z,67.44
2018-05-15T04:53:43.254Z,64.98
2018-05-15T04:54:43.270Z,62.74
2018-05-15T04:55:43.316Z,59.95
2018-05-15T04:56:43.310Z,57.32
2018-05-15T04:57:43.343Z,54.49
2018-05-15T04:58:43.386Z,52.49
2018-05-15T04:59:43.374Z,50.98
2018-05-15T05:00:43.424Z,50.21
2018-05-15T05:01:43.419Z,49.68
2018-05-15T05:02:43.458Z,49.15
2018-05-15T05:03:43.481Z,47.43
2018-05-15T05:04:43.491Z,44.80
2018-05-15T05:05:43.519Z,45.79
2018-05-15T05:06:43.540Z,45.16
2018-05-15T05:07:43.570Z,43.90
2018-05-15T05:08:43.590Z,43.73
2018-05-15T05:09:43.624Z,42.40
2018-05-15T05:10:43.637Z,42.71
2018-05-15T05:11:43.686Z,42.22
2018-05-15T05:12:43.687Z,41.27
2018-05-15T05:13:43.726Z,40.61
2018-05-15T05:14:43.740Z,40.13
2018-05-15T05:15:43.764Z,39.76
2018-05-15T05:16:43.785Z,39.08
2018-05-15T05:17:43.810Z,39.01
2018-05-15T05:18:43.841Z,38.32
2018-05-15T05:19:43.880Z,38.13
2018-05-15T05:20:43.913Z,38.25
2018-05-15T05:21:43.926Z,37.41
2018-05-15T05:22:43.944Z,36.07
2018-05-15T05:23:43.993Z,35.94
2018-05-15T05:24:43.994Z,36.99
2018-05-15T05:25:44.047Z,34.95
2018-05-15T05:26:44.050Z,35.41
2018-05-15T05:27:44.085Z,35.75
2018-05-15T05:28:44.115Z,35.93
2018-05-15T05:29:44.156Z,36.43
2018-05-15T05:30:44.161Z,34.83
2018-05-15T05:31:44.207Z,34.25
2018-05-15T05:32:44.259Z,34.33
2018-05-15T05:33:44.283Z,33.41
2018-05-15T05:34:44.267Z,32.67
2018-05-15T05:35:44.305Z,31.73
2018-05-15T05:36:44.351Z,33.18
2018-05-15T05:37:44.352Z,33.83
2018-05-15T05:38:44.378Z,33.04
2018-05-15T05:39:44.412Z,34.25
2018-05-15T05:40:44.444Z,32.17
2018-05-15T05:41:44.465Z,32.08
2018-05-15T05:42:44.493Z,30.44
2018-05-15T05:43:44.517Z,30.62
2018-05-15T05:44:44.548Z,31.35
2018-05-15T05:45:44.591Z,31.87
2018-05-15T05:46:44.602Z,30.55
2018-05-15T05:47:44.622Z,29.40
2018-05-15T05:48:44.654Z,29.57
2018-05-15T05:49:44.688Z,30.52
2018-05-15T05:50:44.708Z,30.98
2018-05-15T05:51:44.735Z,32.79
2018-05-15T05:52:44.764Z,32.17
2018-05-15T05:53:44.806Z,31.24
2018-05-15T05:54:44.819Z,31.35
2018-05-15T05:55:44.837Z,30.93
2018-05-15T05:56:44.907Z,29.46
2018-05-15T05:57:44.911Z,31.94
2018-05-15T05:58:44.940Z,32.26
2018-05-15T05:59:44.949Z,30.85
2018-05-15T06:00:44.990Z,28.11
2018-05-15T06:01:45.054Z,29.55
2018-05-15T06:02:45.050Z,30.71
2018-05-15T06:03:45.058Z,29.79
2018-05-15T06:04:45.150Z,28.15
2018-05-15T06:05:45.126Z,28.44
2018-05-15T06:06:45.141Z,28.33
2018-05-15T06:07:45.181Z,29.47
2018-05-15T06:08:45.217Z,28.34
2018-05-15T06:09:45.236Z,28.00
2018-05-15T06:10:45.260Z,26.69
2018-05-15T06:11:45.294Z,28.22
2018-05-15T06:12:45.318Z,29.46
2018-05-15T06:13:45.344Z,28.85
2018-05-15T06:14:45.386Z,28.05
2018-05-15T06:15:45.403Z,29.88
2018-05-15T06:16:45.427Z,29.38
2018-05-15T06:17:45.462Z,30.83
2018-05-15T06:18:45.495Z,29.88
2018-05-15T06:19:45.514Z,30.75
2018-05-15T06:20:45.593Z,27.95
2018-05-15T06:21:45.571Z,29.50
2018-05-15T06:22:45.616Z,27.82
2018-05-15T06:23:45.664Z,28.28
2018-05-15T06:24:45.661Z,29.54
2018-05-15T06:25:45.692Z,29.75
2018-05-15T06:26:45.722Z,28.96
2018-05-15T06:27:45.747Z,28.34
2018-05-15T06:28:45.780Z,28.09
2018-05-15T06:29:45.815Z,25.76
2018-05-15T06:30:45.831Z,25.08
2018-05-15T06:31:45.882Z,25.57
2018-05-15T06:32:45.897Z,25.18
2018-05-15T06:33:45.918Z,24.69
2018-05-15T06:34:45.946Z,25.11
2018-05-15T06:35:45.978Z,24.82
2018-05-15T06:36:46.003Z,24.15
2018-05-15T06:37:46.029Z,24.22
2018-05-15T06:38:46.054Z,27.15
2018-05-15T06:39:46.106Z,29.60
2018-05-15T06:40:46.130Z,27.95
2018-05-15T06:41:46.149Z,28.03
2018-05-15T06:42:46.178Z,27.39
2018-05-15T06:43:46.202Z,26.45
2018-05-15T06:44:46.277Z,28.33
2018-05-15T06:45:46.273Z,29.71
2018-05-15T06:46:46.300Z,30.02
2018-05-15T06:47:46.326Z,28.96
2018-05-15T06:48:46.347Z,28.50
2018-05-15T06:49:46.368Z,26.07
2018-05-15T06:50:46.412Z,24.65
2018-05-15T06:51:46.432Z,25.20
2018-05-15T06:52:46.457Z,27.55
2018-05-15T06:53:46.493Z,26.53
2018-05-15T06:54:46.520Z,26.25
2018-05-15T06:55:46.551Z,28.43
2018-05-15T06:56:46.577Z,27.86
2018-05-15T06:57:46.606Z,29.44
2018-05-15T06:58:46.640Z,30.04
2018-05-15T06:59:46.665Z,29.19
2018-05-15T07:00:46.730Z,29.55
2018-05-15T07:01:46.741Z,28.00
2018-05-15T07:02:46.758Z,29.11
2018-05-15T07:03:46.790Z,28.28
2018-05-15T07:04:46.801Z,26.45
2018-05-15T07:05:46.840Z,27.19
2018-05-15T07:06:46.866Z,26.39
2018-05-15T07:07:46.936Z,26.04
2018-05-15T07:08:46.922Z,24.32
2018-05-15T07:09:46.957Z,24.28
2018-05-15T07:10:46.986Z,25.08
2018-05-15T07:11:47.007Z,24.32
2018-05-15T07:12:47.058Z,23.37
2018-05-15T07:13:47.069Z,24.22
2018-05-15T07:14:47.084Z,24.22
2018-05-15T07:15:47.120Z,23.83
2018-05-15T07:16:47.148Z,24.12
2018-05-15T07:17:47.173Z,24.88
2018-05-15T07:18:47.196Z,25.57
2018-05-15T07:19:47.239Z,24.71
2018-05-15T07:20:47.259Z,25.85
2018-05-15T07:21:47.293Z,25.46
2018-05-15T07:22:47.318Z,24.60
2018-05-15T07:23:47.363Z,25.20
2018-05-15T07:24:47.380Z,25.53
2018-05-15T07:25:47.394Z,25.18
2018-05-15T07:26:47.421Z,23.93
2018-05-15T07:27:47.449Z,24.02
2018-05-15T07:28:47.512Z,23.87
2018-05-15T07:29:47.534Z,24.41
2018-05-15T07:30:47.541Z,26.59
2018-05-15T07:31:47.563Z,24.25
2018-05-15T07:32:47.627Z,23.55
2018-05-15T07:33:47.634Z,23.62
2018-05-15T07:34:47.654Z,25.64
2018-05-15T07:35:47.675Z,25.18
2018-05-15T07:36:47.714Z,25.31
2018-05-15T07:37:47.745Z,26.98
2018-05-15T07:38:47.772Z,24.22
2018-05-15T07:39:47.790Z,23.05
2018-05-15T07:40:47.837Z,23.09
2018-05-15T07:41:47.929Z,24.32
2018-05-15T07:42:47.879Z,24.54
2018-05-15T07:43:47.905Z,24.22
2018-05-15T07:44:47.936Z,24.15
2018-05-15T07:45:47.962Z,24.32
2018-05-15T07:46:47.995Z,23.08
2018-05-15T07:47:48.015Z,23.37
2018-05-15T07:48:48.053Z,22.88
2018-05-15T07:49:48.079Z,23.73
2018-05-15T07:50:48.111Z,23.35
2018-05-15T07:51:48.143Z,23.46
2018-05-15T07:52:48.164Z,23.27
2018-05-15T07:53:48.197Z,22.49
2018-05-15T07:54:48.220Z,23.25
2018-05-15T07:55:48.254Z,24.58
2018-05-15T07:56:48.270Z,25.24
2018-05-15T07:57:48.312Z,25.53
2018-05-15T07:58:48.337Z,27.47
2018-05-15T07:59:48.351Z,28.33
2018-05-15T08:00:48.387Z,27.26
2018-05-15T08:01:48.418Z,27.95
2018-05-15T08:02:48.471Z,25.84
2018-05-15T08:03:48.469Z,24.32
2018-05-15T08:04:48.498Z,23.26
2018-05-15T08:05:48.538Z,24.55
2018-05-15T08:06:48.559Z,25.63
2018-05-15T08:07:48.625Z,26.87
2018-05-15T08:08:48.609Z,27.43
2018-05-15T08:09:48.637Z,27.18
2018-05-15T08:10:48.657Z,24.40
2018-05-15T08:11:48.692Z,24.40
2018-05-15T08:12:48.715Z,26.29
2018-05-15T08:13:48.795Z,27.97
2018-05-15T08:14:48.776Z,25.47
2018-05-15T08:15:48.801Z,24.03
2018-05-15T08:16:48.825Z,24.80
2018-05-15T08:17:48.855Z,26.78
2018-05-15T08:18:48.879Z,27.94
2018-05-15T08:19:48.911Z,27.08
2018-05-15T08:20:48.951Z,27.36
2018-05-15T08:21:48.968Z,28.25
2018-05-15T08:22:48.993Z,27.97
2018-05-15T08:23:49.022Z,27.39
2018-05-15T08:24:49.056Z,26.89
2018-05-15T08:25:49.071Z,26.50
2018-05-15T08:26:49.101Z,28.23
2018-05-15T08:27:49.131Z,28.13
2018-05-15T08:28:49.150Z,27.19
2018-05-15T08:29:49.179Z,28.20
2018-05-15T08:30:49.259Z,28.36
2018-05-15T08:31:49.242Z,29.79
2018-05-15T08:32:49.261Z,31.35
2018-05-15T08:33:49.279Z,31.15
2018-05-15T08:34:49.316Z,29.80
2018-05-15T08:35:49.327Z,30.76
2018-05-15T08:36:49.353Z,30.35
2018-05-15T08:37:49.404Z,31.44
2018-05-15T08:38:49.404Z,33.15
2018-05-15T08:39:49.432Z,33.17
2018-05-15T08:40:49.456Z,30.37
2018-05-15T08:41:49.477Z,33.06
2018-05-15T08:42:49.510Z,33.42
2018-05-15T08:43:49.531Z,34.39
2018-05-15T08:44:49.561Z,34.59
2018-05-15T08:45:49.576Z,35.35
2018-05-15T08:46:49.597Z,36.32
2018-05-15T08:47:49.636Z,34.75
2018-05-15T08:48:49.661Z,33.91
2018-05-15T08:49:49.683Z,36.41
2018-05-15T08:50:49.699Z,35.62
2018-05-15T08:51:49.724Z,36.08
2018-05-15T08:52:49.754Z,37.34
2018-05-15T08:53:49.773Z,38.10
2018-05-15T08:54:49.823Z,37.62
2018-05-15T08:55:49.816Z,37.34
2018-05-15T08:56:49.842Z,38.12
2018-05-15T08:57:49.870Z,36.86
2018-05-15T08:58:49.920Z,37.05
2018-05-15T08:59:49.914Z,37.24
2018-05-15T09:00:49.944Z,38.12
2018-05-15T09:01:49.970Z,36.96
2018-05-15T09:02:49.998Z,37.07
2018-05-15T09:03:50.012Z,38.43
2018-05-15T09:04:50.031Z,36.10
2018-05-15T09:05:50.064Z,35.56
2018-05-15T09:06:50.097Z,35.64
2018-05-15T09:07:50.109Z,35.36
2018-05-15T09:08:50.131Z,34.61
2018-05-15T09:09:50.159Z,34.49
2018-05-15T09:10:50.176Z,35.17
2018-05-15T09:11:50.206Z,35.46
2018-05-15T09:12:50.226Z,34.91
2018-05-15T09:13:50.253Z,34.44
2018-05-15T09:14:50.281Z,32.10
2018-05-15T09:15:50.294Z,32.31
2018-05-15T09:16:50.353Z,31.63
2018-05-15T09:17:50.341Z,32.68
2018-05-15T09:18:50.448Z,32.86
2018-05-15T09:19:50.398Z,33.36
2018-05-15T09:20:50.421Z,32.67
2018-05-15T09:21:50.457Z,33.15
2018-05-15T09:22:50.465Z,33.33
2018-05-15T09:23:50.489Z,35.25
2018-05-15T09:24:50.531Z,35.46
2018-05-15T09:25:50.548Z,33.72
2018-05-15T09:26:50.564Z,34.75
2018-05-15T09:27:50.610Z,34.96
2018-05-15T09:28:50.617Z,34.30
2018-05-15T09:29:50.656Z,32.97
2018-05-15T09:30:50.703Z,34.31
2018-05-15T09:31:50.685Z,35.44
2018-05-15T09:32:50.705Z,34.88
2018-05-15T09:33:50.732Z,34.20
2018-05-15T09:34:50.759Z,35.96
2018-05-15T09:35:50.773Z,33.64
2018-05-15T09:36:50.803Z,33.25
2018-05-15T09:37:50.830Z,34.61
2018-05-15T09:38:50.852Z,33.94
2018-05-15T09:39:50.879Z,32.87
2018-05-15T09:40:50.926Z,31.92
2018-05-15T09:41:50.945Z,32.99
2018-05-15T09:42:50.959Z,32.59
2018-05-15T09:43:50.972Z,32.23
2018-05-15T09:44:50.993Z,31.55
2018-05-15T09:45:51.021Z,32.50
2018-05-15T09:46:51.052Z,33.62
2018-05-15T09:47:51.064Z,34.41
2018-05-15T09:48:51.090Z,32.47
2018-05-15T09:49:51.108Z,33.10
2018-05-15T09:50:51.141Z,35.13
2018-05-15T09:51:51.168Z,33.52
2018-05-15T09:52:51.208Z,32.76
2018-05-15T09:53:51.211Z,35.46
2018-05-15T09:54:51.239Z,34.77
2018-05-15T09:55:51.254Z,35.27
2018-05-15T09:56:51.281Z,33.22
2018-05-15T09:57:51.303Z,34.47
2018-05-15T09:58:51.332Z,34.57
2018-05-15T09:59:51.349Z,33.81
2018-05-15T10:00:51.388Z,31.89
2018-05-15T10:01:51.423Z,33.99
2018-05-15T10:02:51.434Z,34.27
2018-05-15T10:03:51.447Z,35.25
2018-05-15T10:04:51.481Z,36.10
2018-05-15T10:05:51.500Z,36.10
2018-05-15T10:06:51.525Z,35.13
2018-05-15T10:07:51.605Z,33.02
2018-05-15T10:08:51.574Z,33.83
2018-05-15T10:09:51.599Z,34.70
2018-05-15T10:10:51.634Z,34.01
2018-05-15T10:11:51.641Z,33.81
2018-05-15T10:12:51.675Z,35.56
2018-05-15T10:13:51.682Z,34.59
2018-05-15T10:14:51.706Z,34.78
2018-05-15T10:15:51.740Z,32.18
2018-05-15T10:16:51.762Z,31.79
2018-05-15T10:17:51.782Z,33.34
2018-05-15T10:18:51.808Z,34.69
2018-05-15T10:19:51.834Z,34.96
2018-05-15T10:20:51.857Z,34.05
2018-05-15T10:21:51.877Z,34.44
2018-05-15T10:22:51.914Z,35.13
2018-05-15T10:23:51.927Z,34.67
2018-05-15T10:24:51.950Z,35.15
2018-05-15T10:25:51.978Z,35.23
2018-05-15T10:26:51.995Z,35.91
2018-05-15T10:27:52.035Z,34.94
2018-05-15T10:28:52.072Z,34.77
2018-05-15T10:29:52.136Z,34.77
2018-05-15T10:30:52.119Z,34.20
2018-05-15T10:31:52.121Z,34.59
2018-05-15T10:32:52.141Z,34.17
2018-05-15T10:33:52.164Z,33.70
2018-05-15T10:34:52.196Z,34.55
2018-05-15T10:35:52.209Z,34.09
2018-05-15T10:36:52.237Z,34.75
2018-05-15T10:37:52.263Z,33.99
2018-05-15T10:38:52.281Z,33.44
2018-05-15T10:39:52.317Z,31.62
2018-05-15T10:40:52.359Z,33.15
2018-05-15T10:41:52.358Z,33.91
2018-05-15T10:42:52.372Z,34.28
2018-05-15T10:43:52.437Z,32.91
2018-05-15T10:44:52.423Z,34.49
2018-05-15T10:45:52.476Z,35.64
2018-05-15T10:46:52.485Z,35.54
2018-05-15T10:47:52.499Z,34.77
2018-05-15T10:48:52.537Z,35.42
2018-05-15T10:49:52.543Z,35.13
2018-05-15T10:50:52.672Z,35.62
2018-05-15T10:51:52.613Z,34.28
2018-05-15T10:52:52.612Z,33.12
2018-05-15T10:53:52.646Z,33.23
2018-05-15T10:54:52.669Z,33.14
2018-05-15T10:55:52.701Z,33.33
2018-05-15T10:56:52.711Z,33.92
2018-05-15T10:57:52.736Z,34.57
2018-05-15T10:58:52.757Z,35.15
2018-05-15T10:59:52.781Z,33.25
2018-05-15T11:00:52.819Z,33.83
2018-05-15T11:01:52.836Z,35.61
2018-05-15T11:02:52.859Z,33.54
2018-05-15T11:03:52.881Z,32.47
2018-05-15T11:04:52.907Z,34.51
2018-05-15T11:05:52.923Z,35.38
2018-05-15T11:06:52.954Z,34.20
2018-05-15T11:07:52.976Z,33.52
2018-05-15T11:08:52.994Z,33.25
2018-05-15T11:09:53.019Z,32.28
2018-05-15T11:10:53.044Z,33.12
2018-05-15T11:11:53.077Z,33.52
2018-05-15T11:12:53.175Z,35.66
2018-05-15T11:13:53.116Z,34.11
2018-05-15T11:14:53.149Z,33.33
2018-05-15T11:15:53.173Z,33.23
2018-05-15T11:16:53.190Z,35.56
2018-05-15T11:17:53.215Z,33.64
2018-05-15T11:18:53.242Z,34.89
2018-05-15T11:19:53.268Z,34.12
2018-05-15T11:20:53.295Z,35.07
2018-05-15T11:21:53.306Z,35.25
2018-05-15T11:22:53.369Z,33.15
2018-05-15T11:23:53.372Z,34.01
2018-05-15T11:24:53.389Z,34.41
2018-05-15T11:25:53.440Z,34.33
2018-05-15T11:26:53.439Z,33.64
2018-05-15T11:27:53.453Z,33.06
2018-05-15T11:28:53.494Z,34.23
2018-05-15T11:29:53.504Z,33.23
2018-05-15T11:30:53.526Z,34.39
2018-05-15T11:31:53.580Z,34.30
2018-05-15T11:32:53.581Z,35.46
2018-05-15T11:33:53.640Z,35.19
2018-05-15T11:34:53.634Z,34.62
2018-05-15T11:35:53.747Z,33.07
2018-05-15T11:36:53.685Z,32.96
2018-05-15T11:37:53.704Z,33.26
2018-05-15T11:38:53.714Z,33.25
2018-05-15T11:39:53.737Z,34.72
2018-05-15T11:40:53.775Z,32.00
2018-05-15T11:41:53.860Z,31.13
2018-05-15T11:42:53.814Z,33.07
2018-05-15T11:43:53.840Z,32.97
2018-05-15T11:44:53.865Z,30.66
2018-05-15T11:45:53.912Z,31.74
2018-05-15T11:46:53.902Z,31.82
2018-05-15T11:47:54.455Z,32.50
2018-05-15T11:48:54.489Z,30.85
2018-05-15T11:49:54.980Z,32.31
2018-05-15T11:50:54.223Z,32.31
2018-05-15T11:51:54.823Z,32.42
2018-05-15T11:52:54.667Z,32.89
2018-05-15T11:53:54.088Z,33.49
2018-05-15T11:54:54.107Z,33.41
2018-05-15T11:55:54.212Z,33.02
2018-05-15T11:56:54.156Z,32.02
2018-05-15T11:57:54.240Z,33.39
2018-05-15T11:58:54.211Z,33.09
2018-05-15T11:59:54.322Z,33.09
2018-05-15T12:00:54.253Z,33.17
2018-05-15T12:01:54.270Z,34.51
2018-05-15T12:02:54.305Z,35.57
2018-05-15T12:03:54.322Z,35.09
2018-05-15T12:04:54.345Z,35.09
2018-05-15T12:05:54.382Z,34.80
2018-05-15T12:06:54.392Z,35.11
2018-05-15T12:07:54.421Z,32.99
2018-05-15T12:08:54.469Z,32.23
2018-05-15T12:09:54.483Z,32.32
2018-05-15T12:10:54.488Z,33.20
2018-05-15T12:11:54.525Z,33.39
2018-05-15T12:12:54.583Z,32.05
2018-05-15T12:13:54.569Z,31.47
2018-05-15T12:14:54.590Z,31.76
2018-05-15T12:15:54.619Z,31.85
2018-05-15T12:16:54.668Z,30.97
2018-05-15T12:17:54.663Z,33.17
2018-05-15T12:18:54.688Z,34.43
2018-05-15T12:19:54.711Z,34.51
2018-05-15T12:20:54.766Z,34.51
2018-05-15T12:21:54.782Z,33.62
2018-05-15T12:22:54.797Z,33.69
2018-05-15T12:23:54.833Z,33.51
2018-05-15T12:24:54.840Z,34.38
2018-05-15T12:25:54.855Z,34.28
2018-05-15T12:26:54.918Z,34.77
2018-05-15T12:27:54.945Z,33.33
2018-05-15T12:28:54.976Z,34.39
2018-05-15T12:29:55.003Z,34.94
2018-05-15T12:30:55.004Z,34.49
2018-05-15T12:31:55.011Z,33.14
2018-05-15T12:32:55.031Z,35.13
2018-05-15T12:33:55.333Z,33.99
2018-05-15T12:34:55.092Z,33.72
2018-05-15T12:35:55.185Z,33.04
2018-05-15T12:36:55.135Z,33.49
2018-05-15T12:37:55.154Z,33.70
2018-05-15T12:38:55.193Z,33.41
2018-05-15T12:39:55.260Z,33.23
2018-05-15T12:40:55.217Z,33.42
2018-05-15T12:41:55.497Z,32.46
2018-05-15T12:42:55.287Z,31.99
2018-05-15T12:43:55.292Z,31.78
2018-05-15T12:44:55.308Z,31.41
2018-05-15T12:45:55.347Z,31.89
2018-05-15T12:46:55.366Z,32.46
2018-05-15T12:47:55.475Z,32.47
2018-05-15T12:48:55.425Z,32.00
2018-05-15T12:49:55.431Z,32.36
2018-05-15T12:50:55.459Z,33.15
2018-05-15T12:51:55.495Z,33.12
2018-05-15T12:52:55.507Z,33.44
2018-05-15T12:53:55.561Z,33.56
2018-05-15T12:54:55.563Z,31.13
2018-05-15T12:55:55.577Z,32.76
2018-05-15T12:56:55.605Z,31.70
2018-05-15T12:57:55.634Z,31.49
2018-05-15T12:58:55.655Z,32.29
2018-05-15T12:59:55.677Z,32.18
2018-05-15T13:00:55.702Z,31.79
2018-05-15T13:01:55.721Z,31.70
2018-05-15T13:02:55.748Z,31.60
2018-05-15T13:03:55.809Z,31.63
2018-05-15T13:04:55.788Z,32.87
2018-05-15T13:05:55.813Z,31.55
2018-05-15T13:06:55.857Z,31.37
2018-05-15T13:07:55.874Z,31.38
2018-05-15T13:08:55.894Z,30.51
2018-05-15T13:09:55.913Z,29.96
2018-05-15T13:10:55.953Z,31.13
2018-05-15T13:11:55.972Z,31.38
2018-05-15T13:12:55.998Z,32.23
2018-05-15T13:13:56.024Z,33.09
2018-05-15T13:14:56.042Z,32.04
2018-05-15T13:15:56.083Z,33.01
2018-05-15T13:16:56.098Z,32.42
2018-05-15T13:17:56.107Z,31.35
2018-05-15T13:18:56.148Z,32.47
2018-05-15T13:19:56.160Z,33.44
2018-05-15T13:20:56.188Z,31.79
2018-05-15T13:21:56.204Z,32.47
2018-05-15T13:22:56.230Z,34.11
2018-05-15T13:23:56.284Z,33.80
2018-05-15T13:24:56.306Z,33.22
2018-05-15T13:25:56.309Z,33.72
2018-05-15T13:26:56.323Z,33.23
2018-05-15T13:27:56.378Z,33.42
2018-05-15T13:28:56.393Z,33.14
2018-05-15T13:29:56.510Z,32.67
2018-05-15T13:30:56.437Z,33.17
2018-05-15T13:31:56.461Z,33.09
2018-05-15T13:32:56.480Z,32.32
2018-05-15T13:33:56.496Z,33.02
2018-05-15T13:34:56.535Z,32.17
2018-05-15T13:35:56.543Z,30.98
2018-05-15T13:36:56.583Z,31.07
2018-05-15T13:37:56.591Z,30.85
2018-05-15T13:38:56.628Z,30.68
2018-05-15T13:39:56.663Z,29.82
2018-05-15T13:40:56.681Z,29.72
2018-05-15T13:41:56.700Z,32.73
2018-05-15T13:42:56.720Z,29.93
2018-05-15T13:43:56.746Z,29.61
2018-05-15T13:44:56.767Z,30.58
2018-05-15T13:45:56.835Z,31.45
2018-05-15T13:46:56.811Z,32.12
2018-05-15T13:47:56.836Z,33.11
2018-05-15T13:48:56.873Z,30.88
2018-05-15T13:49:56.894Z,30.08
2018-05-15T13:50:56.916Z,31.42
2018-05-15T13:51:56.946Z,30.74
2018-05-15T13:52:56.979Z,31.49
2018-05-15T13:53:56.986Z,30.82
2018-05-15T13:54:57.011Z,32.29
2018-05-15T13:55:57.037Z,30.85
2018-05-15T13:56:57.059Z,31.34
2018-05-15T13:57:57.113Z,29.80
2018-05-15T13:58:57.105Z,29.82
2018-05-15T13:59:57.137Z,29.64
2018-05-15T14:00:57.156Z,31.01
2018-05-15T14:01:57.190Z,28.38
2018-05-15T14:02:57.212Z,28.08
2018-05-15T14:03:57.238Z,28.28
2018-05-15T14:04:57.257Z,29.61
2018-05-15T14:05:57.281Z,29.51
2018-05-15T14:06:57.313Z,29.12
2018-05-15T14:07:57.329Z,29.30
2018-05-15T14:08:57.351Z,29.11
2018-05-15T14:09:57.402Z,29.22
2018-05-15T14:10:57.397Z,28.83
2018-05-15T14:11:57.429Z,29.50
2018-05-15T14:12:57.451Z,29.98
2018-05-15T14:13:57.479Z,30.15
2018-05-15T14:14:57.509Z,30.84
2018-05-15T14:15:57.521Z,30.85
2018-05-15T14:16:57.550Z,30.16
2018-05-15T14:17:57.581Z,29.40
2018-05-15T14:18:57.594Z,29.61
2018-05-15T14:19:57.618Z,28.64
2018-05-15T14:20:57.685Z,28.28
2018-05-15T14:21:57.704Z,29.61
2018-05-15T14:22:57.697Z,29.62
2018-05-15T14:23:57.716Z,29.33
2018-05-15T14:24:57.756Z,28.36
2018-05-15T14:25:57.775Z,28.36
2018-05-15T14:26:57.797Z,28.18
2018-05-15T14:27:57.814Z,27.61
2018-05-15T14:28:57.838Z,28.08
2018-05-15T14:29:57.862Z,28.15
2018-05-15T14:30:57.886Z,29.05
2018-05-15T14:31:57.931Z,27.79